Aviation Digital Data Service (ADDS)

Output produced by METARs form (2342 UTC 25 June 2019)
found at http://aviationweather.gov/metar/data/
 
KBTR 252253Z 04008KT 10SM CLR 26/22 A3006 RMK AO2 LTG DSNT E SLP180 T02610217
KBTR 252329Z 2600/2624 04008KT P6SM SKC 
     FM260300 VRB03KT P6SM OVC120 
     FM261500 17005KT P6SM BKN110